Details for Aegean Airlines at LGAV




Go Back


Latest METAR
Local Time

LGAV 240750Z VRB04KT 9999 FEW030 23/14 Q1013 NOSIG

24/05/2018, 11:12:44

Description
Results
Aegean Airlines Logo
Number of Pilots based at LGAV
1 Pilots Based here
Number of Aegean Airlines Flights Departed from LGAV
2 Flights Departed
Number of Aegean Airlines Flights Arrived at LGAV
5 Flights Arrived
Number of Aegean Airlines Schedules Departing from LGAV
110 Schedules
Number of Aegean Airlines Schedules Arriving at LGAV
113 Schedules
Number of Aegean Airlines Schedules Departing from LGAV availible today
46 Schedules Today
Number of Aegean Airlines Schedules Arriving at LGAV availible today
50 Schedules Today
Average Landing Rate at LGAV
-140 fpm
Aegean Airlines Average Landing Rate at LGAV
-255 fpm
Total Fuel Purchased at LGAV by Aegean Airlines
6,591.15 kgs / 14,530.85 lbs

Pilots Based at LGAV


Pilot ID
Pilot Name
Pilot Rank
No. of Flights
No. of Flying Hours
Mike Smith
2
2.46
Content